createdAt,value
2023-02-26T00:02:34.289Z,6.22
2023-02-26T00:05:11.263Z,8.65
2023-02-26T00:07:52.492Z,4.95
2023-02-26T00:10:28.049Z,7.05
2023-02-26T00:13:05.641Z,8.17
2023-02-26T00:15:44.399Z,8.80
2023-02-26T00:18:22.295Z,9.53
2023-02-26T00:20:58.087Z,11.50
2023-02-26T00:23:44.584Z,9.00
2023-02-26T00:26:22.389Z,9.05
2023-02-26T00:28:59.632Z,11.20
2023-02-26T00:31:38.103Z,9.10
2023-02-26T00:34:16.480Z,10.40
2023-02-26T00:36:54.374Z,10.60
2023-02-26T00:42:37.310Z,7.93
2023-02-26T00:45:15.034Z,8.85
2023-02-26T00:47:54.496Z,11.25
2023-02-26T00:53:28.922Z,5.95
2023-02-26T00:56:07.338Z,10.00
2023-02-26T00:58:47.728Z,10.20
2023-02-26T01:10:55.919Z,13.07
2023-02-26T01:13:30.827Z,10.98
2023-02-26T01:16:11.846Z,9.52
2023-02-26T01:18:50.345Z,9.77
2023-02-26T01:24:29.424Z,8.43
2023-02-26T01:30:11.434Z,8.70
2023-02-26T01:32:53.851Z,7.20
2023-02-26T01:41:34.661Z,11.40
2023-02-26T01:44:17.767Z,6.82
2023-02-26T01:53:22.497Z,6.05
2023-02-26T01:55:59.913Z,7.28
2023-02-26T01:58:36.316Z,6.90
2023-02-26T02:01:15.832Z,7.03
2023-02-26T02:03:50.367Z,6.60
2023-02-26T02:06:31.579Z,6.20
2023-02-26T02:09:10.530Z,6.50
2023-02-26T02:11:51.659Z,7.22
2023-02-26T02:14:30.359Z,9.57
2023-02-26T02:17:11.514Z,6.63
2023-02-26T02:19:58.644Z,7.10
2023-02-26T02:22:56.355Z,8.32
2023-02-26T02:25:49.361Z,8.38
2023-02-26T02:28:29.093Z,11.02
2023-02-26T02:31:12.805Z,9.60
2023-02-26T02:33:51.029Z,8.63
2023-02-26T02:36:30.079Z,8.25
2023-02-26T02:39:06.641Z,8.85
2023-02-26T02:41:42.730Z,10.48
2023-02-26T02:44:20.734Z,9.80
2023-02-26T02:47:05.819Z,8.13
2023-02-26T02:49:43.167Z,8.80
2023-02-26T02:52:20.666Z,6.85
2023-02-26T02:57:38.923Z,10.77
2023-02-26T03:00:15.339Z,4.75
2023-02-26T03:02:57.265Z,4.90
2023-02-26T03:05:35.999Z,7.10
2023-02-26T03:11:15.096Z,5.25
2023-02-26T03:13:51.649Z,4.18
2023-02-26T03:16:44.220Z,5.68
2023-02-26T03:19:26.657Z,6.00
2023-02-26T03:22:06.600Z,5.75
2023-02-26T03:25:04.550Z,3.17
2023-02-26T03:33:31.668Z,4.65
2023-02-26T03:36:12.005Z,3.42
2023-02-26T03:38:58.595Z,4.78
2023-02-26T03:41:35.071Z,5.15
2023-02-26T03:44:11.713Z,3.75
2023-02-26T03:46:51.648Z,4.25
2023-02-26T03:49:30.082Z,6.40
2023-02-26T03:52:05.268Z,5.18
2023-02-26T03:55:04.859Z,4.80
2023-02-26T04:01:03.151Z,3.13
2023-02-26T04:03:43.863Z,4.53
2023-02-26T04:06:25.362Z,4.82
2023-02-26T04:09:02.350Z,4.27
2023-02-26T04:17:53.100Z,4.55
2023-02-26T04:23:37.223Z,2.60
2023-02-26T04:26:22.450Z,3.75
2023-02-26T04:38:28.145Z,3.15
2023-02-26T04:41:07.225Z,5.07
2023-02-26T04:46:42.289Z,5.50
2023-02-26T04:49:21.057Z,4.57
2023-02-26T04:51:56.836Z,2.95
2023-02-26T04:54:31.928Z,4.10
2023-02-26T04:57:13.358Z,3.30
2023-02-26T04:59:48.423Z,2.65
2023-02-26T05:02:24.372Z,2.67
2023-02-26T05:04:58.178Z,3.40
2023-02-26T05:07:38.093Z,2.95
2023-02-26T05:10:15.848Z,3.60
2023-02-26T05:12:53.700Z,4.63
2023-02-26T05:15:30.062Z,3.45
2023-02-26T05:18:06.798Z,2.90
2023-02-26T05:20:43.737Z,2.42
2023-02-26T05:23:18.768Z,2.90
2023-02-26T05:25:53.114Z,3.10
2023-02-26T05:28:34.433Z,2.50
2023-02-26T05:31:10.267Z,3.97
2023-02-26T05:33:48.335Z,3.25
2023-02-26T05:36:22.284Z,2.90
2023-02-26T05:38:57.782Z,1.80
2023-02-26T05:44:32.489Z,2.90
2023-02-26T05:47:09.975Z,2.25
2023-02-26T05:49:44.637Z,3.35
2023-02-26T05:52:22.941Z,2.30
2023-02-26T05:54:58.517Z,3.55
2023-02-26T05:57:34.169Z,3.55
2023-02-26T06:00:17.262Z,2.65
2023-02-26T06:02:54.630Z,4.60
2023-02-26T06:05:33.042Z,3.03
2023-02-26T06:11:16.734Z,3.85
2023-02-26T06:13:51.973Z,3.23
2023-02-26T06:16:30.018Z,3.80
2023-02-26T06:19:07.003Z,2.10
2023-02-26T06:21:41.636Z,2.70
2023-02-26T06:24:16.637Z,5.55
2023-02-26T06:26:54.497Z,5.68
2023-02-26T06:29:29.456Z,4.78
2023-02-26T06:32:10.591Z,3.80
2023-02-26T06:34:47.309Z,2.15
2023-02-26T06:37:24.817Z,3.90
2023-02-26T06:40:00.435Z,3.42
2023-02-26T06:42:36.157Z,4.93
2023-02-26T06:45:14.632Z,4.33
2023-02-26T06:47:54.236Z,2.97
2023-02-26T06:50:35.368Z,4.40
2023-02-26T06:53:18.035Z,5.03
2023-02-26T06:55:56.236Z,2.33
2023-02-26T06:58:31.904Z,2.42
2023-02-26T07:01:09.208Z,4.60
2023-02-26T07:03:49.877Z,4.65
2023-02-26T07:06:38.552Z,3.63
2023-02-26T07:09:13.617Z,4.85
2023-02-26T07:11:49.409Z,4.90
2023-02-26T07:14:24.967Z,5.40
2023-02-26T07:17:02.106Z,4.82
2023-02-26T07:19:36.520Z,7.65
2023-02-26T07:22:14.124Z,7.75
2023-02-26T07:24:50.230Z,6.07
2023-02-26T07:27:27.847Z,5.10
2023-02-26T07:30:03.622Z,8.93
2023-02-26T07:32:40.321Z,3.53
2023-02-26T07:35:16.006Z,6.13
2023-02-26T07:37:56.279Z,3.75
2023-02-26T07:40:31.426Z,6.13
2023-02-26T07:43:25.185Z,8.57
2023-02-26T07:46:00.989Z,6.15
2023-02-26T07:48:42.696Z,7.60
2023-02-26T07:51:19.354Z,6.00
2023-02-26T07:53:58.953Z,3.80
2023-02-26T07:56:37.088Z,6.60
2023-02-26T07:59:13.283Z,4.00
2023-02-26T08:04:28.647Z,4.65
2023-02-26T08:07:03.857Z,3.22
2023-02-26T08:09:45.527Z,3.85
2023-02-26T08:12:26.550Z,4.13
2023-02-26T08:15:07.034Z,6.20
2023-02-26T08:17:42.995Z,4.33
2023-02-26T08:20:23.171Z,4.95
2023-02-26T08:22:58.675Z,4.72
2023-02-26T08:25:39.692Z,5.90
2023-02-26T08:28:17.560Z,5.10
2023-02-26T08:30:56.776Z,4.35
2023-02-26T08:33:33.790Z,4.28
2023-02-26T08:36:11.071Z,5.22
2023-02-26T08:38:46.942Z,3.65
2023-02-26T08:41:28.115Z,5.40
2023-02-26T08:44:04.065Z,4.80
2023-02-26T08:46:40.130Z,4.05
2023-02-26T08:51:52.071Z,4.45
2023-02-26T08:54:27.820Z,4.85
2023-02-26T08:57:07.975Z,5.57
2023-02-26T08:59:43.211Z,5.55
2023-02-26T09:02:19.996Z,5.33
2023-02-26T09:04:56.136Z,6.00
2023-02-26T09:10:10.840Z,4.70
2023-02-26T09:12:51.540Z,1.55
2023-02-26T09:15:26.892Z,3.60
2023-02-26T09:18:06.515Z,4.77
2023-02-26T09:20:43.745Z,4.90
2023-02-26T09:23:19.209Z,3.10
2023-02-26T09:25:57.625Z,3.85
2023-02-26T09:28:38.572Z,4.53
2023-02-26T09:31:15.922Z,5.37
2023-02-26T09:33:53.446Z,7.97
2023-02-26T09:36:33.024Z,3.80
2023-02-26T09:39:08.975Z,5.68
2023-02-26T09:41:45.305Z,4.80
2023-02-26T09:44:31.691Z,4.13
2023-02-26T09:47:09.201Z,6.90
2023-02-26T09:49:52.447Z,3.77
2023-02-26T09:52:29.311Z,3.10
2023-02-26T09:55:08.184Z,5.88
2023-02-26T09:57:46.691Z,5.73
2023-02-26T10:00:28.277Z,4.97
2023-02-26T10:03:11.463Z,7.35
2023-02-26T10:05:50.328Z,4.53
2023-02-26T10:08:29.816Z,4.45
2023-02-26T10:11:09.444Z,8.18
2023-02-26T10:13:57.041Z,7.63
2023-02-26T10:16:36.642Z,6.80
2023-02-26T10:19:22.017Z,5.53
2023-02-26T10:21:58.715Z,7.60
2023-02-26T10:24:39.967Z,7.75
2023-02-26T10:27:14.746Z,9.85
2023-02-26T10:29:54.128Z,7.03
2023-02-26T10:32:35.414Z,6.55
2023-02-26T10:35:17.145Z,7.30
2023-02-26T10:37:55.829Z,5.70
2023-02-26T10:40:30.664Z,8.38
2023-02-26T10:43:12.820Z,5.45
2023-02-26T10:46:01.714Z,7.20
2023-02-26T10:48:46.670Z,3.85
2023-02-26T10:51:26.822Z,5.60
2023-02-26T10:54:06.235Z,3.87
2023-02-26T10:56:40.648Z,5.53
2023-02-26T10:59:18.826Z,2.77
2023-02-26T11:01:57.314Z,4.07
2023-02-26T11:04:41.254Z,4.80
2023-02-26T11:07:19.531Z,4.20
2023-02-26T11:09:56.050Z,4.75
2023-02-26T11:12:41.153Z,5.40
2023-02-26T11:15:23.970Z,4.18
2023-02-26T11:18:00.117Z,4.72
2023-02-26T11:23:19.069Z,5.45
2023-02-26T11:26:00.191Z,6.18
2023-02-26T11:28:37.224Z,4.75
2023-02-26T11:31:15.478Z,7.18
2023-02-26T11:33:58.218Z,6.30
2023-02-26T11:36:35.638Z,4.65
2023-02-26T11:39:21.653Z,6.55
2023-02-26T11:41:57.461Z,5.63
2023-02-26T11:44:39.200Z,4.82
2023-02-26T11:47:16.721Z,7.43
2023-02-26T11:49:54.416Z,6.88
2023-02-26T11:52:33.942Z,5.47
2023-02-26T11:55:21.928Z,6.38
2023-02-26T11:57:57.926Z,7.07
2023-02-26T12:00:35.657Z,7.05
2023-02-26T12:03:14.934Z,10.10
2023-02-26T12:05:51.484Z,11.00
2023-02-26T12:08:31.551Z,8.52
2023-02-26T12:11:22.073Z,20.90
2023-02-26T12:14:08.539Z,13.15
2023-02-26T12:19:29.079Z,7.47
2023-02-26T12:22:23.541Z,8.95
2023-02-26T12:25:42.816Z,10.20
2023-02-26T12:28:35.179Z,8.77
2023-02-26T12:31:52.433Z,5.40
2023-02-26T12:34:48.135Z,8.63
2023-02-26T12:37:33.118Z,6.93
2023-02-26T12:40:16.914Z,13.85
2023-02-26T12:42:59.077Z,5.45
2023-02-26T12:45:43.045Z,11.27
2023-02-26T12:48:58.952Z,9.13
2023-02-26T12:51:43.528Z,9.25
2023-02-26T12:54:35.404Z,8.27
2023-02-26T13:00:19.947Z,7.50
2023-02-26T13:03:15.188Z,5.32
2023-02-26T13:06:11.765Z,5.63
2023-02-26T13:08:53.761Z,5.78
2023-02-26T13:11:30.247Z,3.90
2023-02-26T13:14:14.918Z,5.25
2023-02-26T13:16:54.769Z,3.28
2023-02-26T13:19:35.516Z,3.25
2023-02-26T13:25:11.890Z,3.80
2023-02-26T13:27:47.599Z,2.87
2023-02-26T13:30:28.024Z,4.38
2023-02-26T13:33:07.513Z,8.18
2023-02-26T13:35:42.385Z,5.95
2023-02-26T13:41:17.737Z,7.72
2023-02-26T13:46:56.943Z,7.20
2023-02-26T13:52:37.235Z,8.27
2023-02-26T13:55:46.697Z,6.68
2023-02-26T13:58:34.058Z,7.93
2023-02-26T14:01:12.388Z,6.70
2023-02-26T14:06:35.387Z,7.85
2023-02-26T14:09:34.655Z,8.70
2023-02-26T14:12:47.640Z,12.23
2023-02-26T14:15:35.359Z,9.60
2023-02-26T14:18:12.596Z,9.20
2023-02-26T14:20:50.185Z,5.28
2023-02-26T14:26:07.199Z,9.20
2023-02-26T14:31:53.968Z,9.48
2023-02-26T14:34:40.844Z,5.30
2023-02-26T14:37:18.144Z,5.57
2023-02-26T14:42:43.241Z,8.70
2023-02-26T14:48:05.503Z,8.43
2023-02-26T14:50:53.630Z,7.50
2023-02-26T14:53:48.871Z,7.00
2023-02-26T14:59:36.815Z,5.60
2023-02-26T15:02:20.796Z,9.32
2023-02-26T15:05:22.854Z,6.40
2023-02-26T15:08:09.457Z,5.93
2023-02-26T15:13:37.165Z,5.70
2023-02-26T15:16:18.398Z,4.22
2023-02-26T15:19:03.620Z,7.00
2023-02-26T15:21:48.349Z,4.30
2023-02-26T15:24:24.292Z,7.40
2023-02-26T15:27:03.141Z,6.75
2023-02-26T15:29:42.216Z,9.65
2023-02-26T15:32:29.346Z,6.03
2023-02-26T15:35:08.161Z,9.90
2023-02-26T15:37:49.954Z,8.87
2023-02-26T15:40:27.368Z,11.20
2023-02-26T15:43:03.621Z,11.73
2023-02-26T15:45:41.299Z,11.50
2023-02-26T15:48:19.631Z,6.57
2023-02-26T15:50:58.851Z,6.60
2023-02-26T15:53:41.887Z,9.13
2023-02-26T15:56:20.109Z,6.45
2023-02-26T15:58:54.468Z,6.47
2023-02-26T16:01:32.248Z,6.50
2023-02-26T16:04:09.496Z,9.35
2023-02-26T16:06:46.258Z,5.82
2023-02-26T16:09:29.021Z,9.40
2023-02-26T16:12:06.428Z,13.65
2023-02-26T16:14:43.909Z,10.90
2023-02-26T16:17:20.424Z,9.45
2023-02-26T16:19:59.381Z,13.00
2023-02-26T16:22:34.575Z,9.95
2023-02-26T16:25:19.986Z,10.13
2023-02-26T16:27:54.477Z,9.07
2023-02-26T16:30:34.279Z,11.18
2023-02-26T16:33:13.857Z,11.23
2023-02-26T16:35:53.167Z,12.32
2023-02-26T16:38:31.390Z,11.85
2023-02-26T16:41:11.266Z,11.13
2023-02-26T16:43:57.133Z,12.07
2023-02-26T16:46:37.616Z,11.27
2023-02-26T16:49:15.457Z,13.18
2023-02-26T16:51:50.447Z,19.88
2023-02-26T16:54:27.688Z,15.35
2023-02-26T16:57:07.166Z,25.45
2023-02-26T16:59:43.805Z,19.73
2023-02-26T17:02:20.251Z,15.32
2023-02-26T17:04:56.713Z,20.15
2023-02-26T17:07:33.611Z,17.05
2023-02-26T17:10:11.835Z,15.57
2023-02-26T17:12:52.221Z,16.02
2023-02-26T17:15:32.279Z,15.77
2023-02-26T17:20:58.671Z,21.33
2023-02-26T17:23:42.275Z,19.50
2023-02-26T17:26:21.376Z,18.15
2023-02-26T17:28:55.548Z,17.63
2023-02-26T17:31:44.473Z,15.57
2023-02-26T17:34:25.527Z,21.55
2023-02-26T17:37:08.394Z,48.17
2023-02-26T17:39:45.639Z,129.17
2023-02-26T17:42:23.975Z,76.00
2023-02-26T17:45:00.778Z,23.47
2023-02-26T17:47:40.498Z,15.95
2023-02-26T17:50:24.484Z,29.15
2023-02-26T17:53:04.208Z,19.93
2023-02-26T17:55:43.186Z,21.92
2023-02-26T17:58:21.606Z,25.55
2023-02-26T18:01:04.819Z,30.00
2023-02-26T18:03:40.250Z,13.70
2023-02-26T18:06:22.549Z,16.05
2023-02-26T18:08:59.393Z,18.90
2023-02-26T18:11:36.688Z,19.05
2023-02-26T18:14:13.104Z,18.08
2023-02-26T18:16:50.626Z,20.70
2023-02-26T18:19:31.826Z,18.67
2023-02-26T18:22:13.241Z,19.60
2023-02-26T18:24:50.267Z,20.00
2023-02-26T18:27:29.780Z,19.70
2023-02-26T18:30:07.373Z,23.83
2023-02-26T18:32:48.950Z,11.07
2023-02-26T18:35:30.026Z,14.38
2023-02-26T18:38:14.564Z,18.55
2023-02-26T18:40:51.809Z,15.55
2023-02-26T18:43:33.136Z,16.27
2023-02-26T18:46:11.167Z,11.53
2023-02-26T18:48:47.642Z,21.02
2023-02-26T18:51:27.548Z,18.50
2023-02-26T18:54:01.243Z,18.83
2023-02-26T18:59:47.009Z,18.55
2023-02-26T19:02:23.604Z,19.88
2023-02-26T19:05:02.749Z,19.55
2023-02-26T19:07:41.096Z,41.23
2023-02-26T19:10:19.961Z,15.70
2023-02-26T19:12:58.020Z,16.65
2023-02-26T19:15:39.712Z,18.60
2023-02-26T19:18:15.282Z,16.27
2023-02-26T19:20:52.059Z,14.17
2023-02-26T19:23:29.390Z,15.40
2023-02-26T19:26:04.499Z,19.10
2023-02-26T19:28:40.542Z,22.95
2023-02-26T19:31:22.327Z,21.25
2023-02-26T19:34:08.316Z,25.48
2023-02-26T19:36:48.684Z,24.08
2023-02-26T19:39:28.027Z,27.20
2023-02-26T19:42:09.848Z,23.05
2023-02-26T19:44:47.616Z,23.88
2023-02-26T19:47:21.206Z,19.10
2023-02-26T19:50:02.190Z,21.33
2023-02-26T19:52:41.643Z,16.90
2023-02-26T19:55:17.847Z,20.85
2023-02-26T19:57:54.090Z,15.35
2023-02-26T20:00:32.701Z,24.17
2023-02-26T20:03:14.364Z,25.92
2023-02-26T20:05:55.298Z,32.10
2023-02-26T20:08:31.686Z,37.42
2023-02-26T20:11:12.908Z,48.03
2023-02-26T20:13:49.234Z,41.43
2023-02-26T20:16:25.230Z,36.63
2023-02-26T20:22:03.751Z,26.33
2023-02-26T20:24:43.982Z,23.93
2023-02-26T20:27:19.475Z,25.37
2023-02-26T20:29:55.160Z,15.27
2023-02-26T20:35:29.903Z,18.50
2023-02-26T20:38:11.650Z,21.03
2023-02-26T20:40:47.080Z,22.52
2023-02-26T20:43:27.240Z,21.58
2023-02-26T20:46:04.635Z,19.08
2023-02-26T20:48:45.319Z,20.65
2023-02-26T20:51:21.229Z,22.90
2023-02-26T20:56:54.197Z,21.30
2023-02-26T20:59:33.101Z,18.65
2023-02-26T21:02:10.324Z,20.40
2023-02-26T21:04:47.238Z,18.15
2023-02-26T21:07:25.158Z,20.25
2023-02-26T21:10:01.194Z,26.70
2023-02-26T21:12:43.708Z,20.70
2023-02-26T21:15:22.542Z,20.70
2023-02-26T21:17:58.091Z,21.70
2023-02-26T21:20:42.419Z,20.50
2023-02-26T21:23:19.814Z,21.30
2023-02-26T21:25:55.984Z,18.90
2023-02-26T21:28:36.117Z,18.67
2023-02-26T21:31:10.377Z,19.67
2023-02-26T21:33:46.796Z,23.83
2023-02-26T21:36:24.940Z,24.33
2023-02-26T21:39:03.218Z,20.98
2023-02-26T21:41:40.370Z,24.55
2023-02-26T21:44:20.149Z,24.65
2023-02-26T21:46:57.891Z,25.20
2023-02-26T21:49:33.765Z,25.55
2023-02-26T21:52:10.324Z,26.77
2023-02-26T21:54:49.834Z,22.15
2023-02-26T21:57:29.004Z,26.17
2023-02-26T22:00:10.461Z,26.55
2023-02-26T22:02:51.978Z,32.85
2023-02-26T22:05:27.010Z,27.98
2023-02-26T22:08:04.703Z,32.95
2023-02-26T22:10:46.055Z,30.60
2023-02-26T22:13:25.085Z,21.75
2023-02-26T22:19:15.005Z,27.93
2023-02-26T22:21:51.591Z,30.73
2023-02-26T22:24:29.405Z,26.20
2023-02-26T22:27:06.621Z,30.90
2023-02-26T22:29:43.222Z,33.38
2023-02-26T22:32:22.887Z,41.95
2023-02-26T22:35:06.453Z,33.23
2023-02-26T22:37:47.593Z,33.00
2023-02-26T22:40:27.385Z,25.77
2023-02-26T22:43:02.101Z,22.50
2023-02-26T22:48:46.909Z,22.23
2023-02-26T22:51:22.197Z,19.67
2023-02-26T22:54:00.288Z,21.30
2023-02-26T22:56:36.161Z,19.00
2023-02-26T23:02:10.826Z,21.70
2023-02-26T23:04:48.726Z,21.02
2023-02-26T23:07:24.488Z,20.10
2023-02-26T23:10:02.874Z,19.90
2023-02-26T23:12:39.574Z,17.95
2023-02-26T23:15:17.464Z,23.10
2023-02-26T23:17:51.681Z,20.80
2023-02-26T23:20:29.236Z,21.20
2023-02-26T23:23:04.635Z,20.77
2023-02-26T23:25:47.189Z,18.17
2023-02-26T23:28:25.557Z,17.48
2023-02-26T23:33:35.373Z,18.65
2023-02-26T23:36:24.628Z,16.70
2023-02-26T23:39:01.673Z,17.02
2023-02-26T23:41:46.192Z,17.15
2023-02-26T23:44:29.116Z,19.38
2023-02-26T23:47:08.212Z,16.60
2023-02-26T23:49:46.309Z,18.57
2023-02-26T23:52:46.158Z,16.60
2023-02-26T23:55:21.819Z,20.92
2023-02-26T23:58:00.099Z,16.85
